Time;durP1;ratioP1;P1;durP2;ratioP2;P2;SDS_P1;SDS_P2;PMS_P1;PMS_P2;Temp;Humidity;BMP_temperature;BMP_pressure;BME280_temperature;BME280_humidity;BME280_pressure;Samples;Min_cycle;Max_cycle;Signal;HPM_P1;HPM_P2
2021/03/12 00:01:26;;;;;;;15.20;8.10;;;;;;;-2.25;57.61;99720.06;1709005;83;21116;-68
2021/03/12 00:03:53;;;;;;;14.78;8.25;;;;;;;-2.20;57.73;99718.23;1719397;83;21168;-68
2021/03/12 00:06:21;;;;;;;13.00;8.23;;;;;;;-2.19;57.78;99705.25;1719501;83;21314;-68
2021/03/12 00:08:48;;;;;;;14.75;9.80;;;;;;;-2.21;57.58;99723.00;1700597;83;21307;-69
2021/03/12 00:11:16;;;;;;;17.40;8.90;;;;;;;-2.21;57.68;99701.84;1733118;82;21152;-68
2021/03/12 00:13:44;;;;;;;18.42;8.83;;;;;;;-2.23;57.62;99698.88;1738219;81;21168;-68
2021/03/12 00:16:11;;;;;;;14.43;8.38;;;;;;;-2.26;57.61;99688.13;1710942;84;21290;-69
2021/03/12 00:18:41;;;;;;;13.83;8.25;;;;;;;-2.21;57.58;99701.84;1757901;81;21189;-69
2021/03/12 00:21:10;;;;;;;15.08;8.75;;;;;;;-2.26;57.88;99689.42;1691677;84;21360;-68
2021/03/12 00:23:39;;;;;;;16.55;9.55;;;;;;;-2.23;57.71;99694.99;1725362;82;21131;-69
2021/03/12 00:26:06;;;;;;;14.05;8.48;;;;;;;-2.25;57.80;99694.16;1754526;80;21288;-68
2021/03/12 00:28:35;;;;;;;14.73;9.00;;;;;;;-2.71;57.90;99637.16;1780562;80;21301;-69
2021/03/12 00:31:05;;;;;;;13.45;8.35;;;;;;;-2.24;57.79;99669.96;1715141;84;21357;-69
2021/03/12 00:33:32;;;;;;;13.32;9.15;;;;;;;-2.24;57.76;99663.48;1744741;81;21137;-68
2021/03/12 00:36:02;;;;;;;13.93;8.98;;;;;;;-2.23;57.85;99649.66;1752647;82;21658;-69
2021/03/12 00:38:29;;;;;;;12.88;7.47;;;;;;;-2.19;57.53;99646.95;1752720;80;21266;-69
2021/03/12 00:41:00;;;;;;;14.70;8.33;;;;;;;-2.20;57.49;99662.53;1776563;80;21639;-69
2021/03/12 00:43:29;;;;;;;15.55;8.73;;;;;;;-2.23;57.69;99666.03;1784244;80;21360;-68
2021/03/12 00:46:01;;;;;;;13.50;7.50;;;;;;;-2.24;57.71;99649.23;1700155;84;21329;-68
2021/03/12 00:48:31;;;;;;;12.10;8.25;;;;;;;-2.21;57.38;99653.92;1757592;81;21279;-68
2021/03/12 00:50:58;;;;;;;12.60;8.25;;;;;;;-2.21;57.40;99650.45;1690555;84;21191;-68
2021/03/12 00:53:27;;;;;;;14.05;7.75;;;;;;;-2.22;57.57;99631.94;1733055;81;21116;-69
2021/03/12 00:55:55;;;;;;;12.78;8.35;;;;;;;-2.22;57.27;99622.41;1727620;83;21194;-68
2021/03/12 00:58:23;;;;;;;14.65;9.13;;;;;;;-2.23;57.22;99634.11;1714902;84;21738;-68
2021/03/12 01:00:52;;;;;;;12.23;7.65;;;;;;;-2.24;57.56;99611.22;1699922;83;21188;-68
2021/03/12 01:03:21;;;;;;;14.73;8.20;;;;;;;-2.25;57.73;99612.55;1696478;83;21377;-68
2021/03/12 01:05:51;;;;;;;13.58;7.60;;;;;;;-2.24;57.28;99607.78;1778788;80;21321;-69
2021/03/12 01:08:20;;;;;;;15.68;8.80;;;;;;;-2.25;57.36;99586.64;1783418;80;21309;-69
2021/03/12 01:10:47;;;;;;;16.80;8.70;;;;;;;-2.25;57.34;99588.81;1710224;83;21319;-68
2021/03/12 01:13:15;;;;;;;13.98;8.03;;;;;;;-2.27;57.40;99569.84;1724958;83;21280;-68
2021/03/12 01:15:43;;;;;;;14.28;7.62;;;;;;;-2.25;57.23;99590.10;1770573;81;21144;-68
2021/03/12 01:18:12;;;;;;;16.05;9.53;;;;;;;-2.31;57.28;99570.34;1711306;83;21159;-68
2021/03/12 01:20:40;;;;;;;13.00;7.53;;;;;;;-2.30;57.00;99572.51;1770617;80;21203;-68
2021/03/12 01:23:09;;;;;;;13.78;7.33;;;;;;;-2.31;57.38;99569.50;1699854;83;21151;-68
2021/03/12 01:25:44;;;;;;;15.08;7.50;;;;;;;-2.26;56.96;99556.43;1763468;80;21172;-69
2021/03/12 01:28:13;;;;;;;13.80;8.25;;;;;;;-2.28;57.21;99591.44;1725138;83;21191;-69
2021/03/12 01:30:44;;;;;;;12.35;7.60;;;;;;;-2.28;56.97;99575.90;1712758;82;21128;-69
2021/03/12 01:33:28;;;;;;;13.25;8.33;;;;;;;-2.30;57.09;99595.83;1711933;84;21212;-69
2021/03/12 01:35:56;;;;;;;12.05;7.78;;;;;;;-2.28;56.93;99597.92;1732112;81;21191;-69
2021/03/12 01:38:24;;;;;;;11.43;7.30;;;;;;;-2.26;57.08;99594.87;1723513;81;21120;-69
2021/03/12 01:40:51;;;;;;;11.95;6.92;;;;;;;-2.28;56.95;99595.33;1712814;84;21159;-69
2021/03/12 01:43:21;;;;;;;14.75;8.65;;;;;;;-2.28;57.00;99605.69;1735499;81;21190;-69
2021/03/12 01:45:50;;;;;;;15.98;7.92;;;;;;;-2.28;56.95;99590.60;1725171;83;21185;-69
2021/03/12 01:48:23;;;;;;;12.03;7.75;;;;;;;-2.28;57.04;99589.31;1739640;81;21316;-69
2021/03/12 01:51:00;;;;;;;12.15;7.78;;;;;;;-2.31;57.20;99569.50;1724737;83;21824;-69
2021/03/12 01:53:28;;;;;;;12.03;7.33;;;;;;;-2.30;56.95;99571.21;1770656;81;21270;-69
2021/03/12 01:55:56;;;;;;;16.80;7.97;;;;;;;-2.30;57.14;99563.44;1724419;83;21187;-69
2021/03/12 01:58:26;;;;;;;13.43;7.75;;;;;;;-2.29;57.06;99559.10;1770734;81;21163;-69
2021/03/12 02:00:56;;;;;;;15.28;7.97;;;;;;;-2.31;57.31;99537.96;1724387;83;21293;-69
2021/03/12 02:03:28;;;;;;;12.90;6.87;;;;;;;-2.33;57.28;99527.22;1747508;81;21604;-69
2021/03/12 02:05:57;;;;;;;14.55;7.50;;;;;;;-2.37;57.39;99545.02;1770076;81;21310;-69
2021/03/12 02:08:26;;;;;;;12.85;7.17;;;;;;;-2.39;57.51;99549.36;1714629;83;21180;-68
2021/03/12 02:10:55;;;;;;;17.37;7.55;;;;;;;-2.44;57.79;99542.13;1716675;83;21325;-69
2021/03/12 02:13:47;;;;;;;12.90;7.95;;;;;;;-2.41;57.81;99542.08;1669374;83;22206;-69
2021/03/12 02:16:29;;;;;;;12.07;6.67;;;;;;;-2.44;57.69;99530.48;1671142;85;21368;-69
2021/03/12 02:19:14;;;;;;;17.85;8.93;;;;;;;-2.45;57.62;99536.56;1749348;81;21794;-69
2021/03/12 02:21:51;;;;;;;16.07;8.90;;;;;;;-2.48;57.77;99517.60;1765521;81;21296;-69
2021/03/12 02:24:37;;;;;;;15.78;8.68;;;;;;;-2.53;57.78;99528.50;1744393;82;21161;-69
2021/03/12 02:27:12;;;;;;;11.08;6.97;;;;;;;-2.53;57.81;99533.67;1723449;81;21296;-71
2021/03/12 02:29:46;;;;;;;15.23;8.03;;;;;;;-2.58;57.84;99519.97;1746568;81;21303;-70
2021/03/12 02:32:25;;;;;;;13.05;7.87;;;;;;;-2.61;58.06;99499.76;1715917;82;21178;-70
2021/03/12 02:34:54;;;;;;;15.38;7.40;;;;;;;-2.68;57.93;99492.11;1757529;81;22186;-69
2021/03/12 02:37:23;;;;;;;18.35;8.78;;;;;;;-2.68;58.12;99492.11;1744342;82;21606;-68
2021/03/12 02:39:57;;;;;;;13.15;7.33;;;;;;;-2.64;58.16;99494.20;1755215;81;21176;-68
2021/03/12 02:42:26;;;;;;;15.43;8.08;;;;;;;-2.69;57.93;99496.03;1696834;84;21341;-69
2021/03/12 02:44:56;;;;;;;19.65;9.03;;;;;;;-2.64;57.96;99504.55;1775149;81;21179;-69
2021/03/12 02:47:30;;;;;;;16.23;7.97;;;;;;;-2.65;57.99;99504.14;1747559;81;21588;-69
2021/03/12 02:50:00;;;;;;;12.73;7.85;;;;;;;-2.67;58.03;99503.34;1698547;84;21600;-68
2021/03/12 02:52:27;;;;;;;14.85;8.03;;;;;;;-2.64;57.84;99512.32;1775133;81;21151;-68
2021/03/12 02:54:56;;;;;;;15.23;7.42;;;;;;;-2.65;57.79;99492.48;1743222;81;21266;-68
2021/03/12 02:57:24;;;;;;;14.65;8.45;;;;;;;-2.61;57.97;99491.53;1775151;81;21565;-68
2021/03/12 02:59:54;;;;;;;13.53;7.70;;;;;;;-2.67;57.83;99489.09;1739571;81;21134;-69
2021/03/12 03:02:39;;;;;;;13.58;8.20;;;;;;;-2.61;57.66;99479.88;1778294;79;23086;-68
2021/03/12 03:05:09;;;;;;;14.13;7.37;;;;;;;-2.69;57.98;99493.44;1759812;80;21305;-69
2021/03/12 03:07:39;;;;;;;13.62;8.60;;;;;;;-2.69;57.96;99481.80;1711353;84;21150;-68
2021/03/12 03:10:10;;;;;;;12.03;6.75;;;;;;;-2.71;58.13;99474.06;1741754;82;21627;-68
2021/03/12 03:12:41;;;;;;;13.30;7.28;;;;;;;-2.73;58.21;99473.23;1699228;83;21182;-68
2021/03/12 03:15:10;;;;;;;14.60;8.13;;;;;;;-2.73;58.17;99461.59;1690761;83;21214;-69
2021/03/12 03:17:38;;;;;;;12.73;7.80;;;;;;;-2.74;58.55;99479.74;1691254;83;21637;-69
2021/03/12 03:20:10;;;;;;;15.15;7.70;;;;;;;-2.77;58.18;99470.76;1679121;83;21626;-68
2021/03/12 03:22:39;;;;;;;13.32;8.15;;;;;;;-2.80;58.39;99467.33;1654490;85;21591;-69
2021/03/12 03:25:11;;;;;;;13.40;8.35;;;;;;;-2.84;58.82;99453.19;1663041;85;21645;-68
2021/03/12 03:27:40;;;;;;;14.70;8.10;;;;;;;-2.83;58.56;99457.48;1712410;84;21351;-69
2021/03/12 03:30:11;;;;;;;16.90;7.15;;;;;;;-2.90;58.72;99459.34;1706419;84;21217;-69
2021/03/12 03:32:39;;;;;;;15.38;8.50;;;;;;;-2.92;58.55;99452.05;1675331;84;21198;-69
2021/03/12 03:35:11;;;;;;;13.35;7.50;;;;;;;-2.97;58.45;99452.16;1712529;84;21186;-69
2021/03/12 03:37:38;;;;;;;14.05;8.73;;;;;;;-2.95;58.61;99441.77;1692487;84;21487;-69
2021/03/12 03:40:07;;;;;;;12.85;7.70;;;;;;;-3.00;58.73;99428.07;1712427;84;21214;-69
2021/03/12 03:42:35;;;;;;;17.80;8.23;;;;;;;-3.01;58.60;99449.65;1707845;84;21512;-69
2021/03/12 03:45:07;;;;;;;15.25;8.73;;;;;;;-3.01;58.80;99432.83;1650522;85;21324;-68
2021/03/12 03:47:34;;;;;;;18.70;7.95;;;;;;;-3.04;58.82;99432.91;1658518;84;21413;-69
2021/03/12 03:50:03;;;;;;;14.95;7.70;;;;;;;-3.03;58.58;99428.11;1704694;84;21729;-69
2021/03/12 03:52:31;;;;;;;13.53;7.08;;;;;;;-3.06;58.51;99417.84;1711900;84;21194;-68
2021/03/12 03:55:01;;;;;;;17.35;8.50;;;;;;;-3.10;58.75;99403.27;1679637;83;21311;-68
2021/03/12 03:57:31;;;;;;;17.02;8.40;;;;;;;-3.10;58.69;99402.81;1675580;84;21731;-68
2021/03/12 03:59:59;;;;;;;13.20;8.13;;;;;;;-3.12;58.67;99414.91;1689019;84;21352;-68
2021/03/12 04:02:29;;;;;;;14.98;8.43;;;;;;;-3.07;58.76;99408.37;1698896;84;21794;-68
2021/03/12 04:04:57;;;;;;;17.45;8.70;;;;;;;-3.09;58.81;99415.33;1651196;86;21726;-69
2021/03/12 04:07:25;;;;;;;16.57;8.18;;;;;;;-3.10;58.95;99411.87;1668880;86;21623;-69
2021/03/12 04:09:55;;;;;;;14.33;9.23;;;;;;;-3.08;58.67;99418.30;1679964;85;21227;-70
2021/03/12 04:12:22;;;;;;;13.75;6.95;;;;;;;-3.09;58.61;99412.73;1697125;84;21203;-69
2021/03/12 04:14:51;;;;;;;16.17;7.90;;;;;;;-3.07;58.57;99422.17;1693248;84;21155;-69
2021/03/12 04:17:21;;;;;;;13.88;8.43;;;;;;;-3.06;58.44;99417.84;1640858;86;21362;-69
2021/03/12 04:19:48;;;;;;;14.73;7.53;;;;;;;-3.14;58.59;99434.35;1654841;87;21205;-69
2021/03/12 04:22:16;;;;;;;15.50;8.13;;;;;;;-3.07;58.44;99451.05;1720971;82;21306;-69
2021/03/12 04:24:45;;;;;;;15.98;9.08;;;;;;;-3.10;58.22;99413.62;1713037;82;21231;-69
2021/03/12 04:27:14;;;;;;;14.40;7.97;;;;;;;-3.05;58.34;99420.84;1714640;84;21189;-69
2021/03/12 04:29:43;;;;;;;14.50;8.43;;;;;;;-3.03;58.34;99417.77;1708580;82;21273;-69
2021/03/12 04:32:11;;;;;;;16.55;8.75;;;;;;;-3.04;58.13;99426.44;1744074;82;21711;-69
2021/03/12 04:34:39;;;;;;;14.00;8.03;;;;;;;-3.09;58.30;99419.20;1741949;82;21603;-69
2021/03/12 04:37:06;;;;;;;15.68;8.88;;;;;;;-3.08;58.27;99423.05;1741468;82;21167;-69
2021/03/12 04:39:33;;;;;;;16.23;9.35;;;;;;;-3.12;58.22;99427.84;1719405;82;21163;-69
2021/03/12 04:42:01;;;;;;;13.88;8.05;;;;;;;-3.10;58.50;99431.72;1738990;82;21179;-69
2021/03/12 04:44:29;;;;;;;14.65;8.85;;;;;;;-3.14;58.57;99430.47;1715795;82;21284;-69
2021/03/12 04:46:56;;;;;;;14.10;7.92;;;;;;;-3.12;58.12;99443.38;1714680;82;21607;-69
2021/03/12 04:49:24;;;;;;;12.82;8.20;;;;;;;-3.15;58.16;99445.58;1689294;82;21604;-70
2021/03/12 04:51:53;;;;;;;18.30;8.95;;;;;;;-3.20;58.44;99444.81;1744216;82;21297;-70
2021/03/12 04:54:21;;;;;;;12.00;7.92;;;;;;;-3.18;58.57;99453.41;1733688;82;21179;-69
2021/03/12 04:56:49;;;;;;;17.55;8.10;;;;;;;-3.20;58.74;99442.22;1744247;82;21556;-69
2021/03/12 04:59:16;;;;;;;15.38;9.68;;;;;;;-3.19;58.56;99438.77;1723389;82;21211;-69
2021/03/12 05:01:44;;;;;;;20.08;9.18;;;;;;;-3.20;58.53;99435.76;1714922;82;21203;-69
2021/03/12 05:04:13;;;;;;;20.35;9.88;;;;;;;-3.19;58.55;99433.59;1696848;84;21739;-69
2021/03/12 05:06:43;;;;;;;13.68;8.35;;;;;;;-3.21;58.43;99410.80;1696263;82;21627;-69
2021/03/12 05:09:12;;;;;;;14.98;8.38;;;;;;;-3.19;58.52;99412.89;1712940;82;21174;-69
2021/03/12 05:11:43;;;;;;;16.30;8.65;;;;;;;-3.26;58.64;99426.84;1687540;84;21285;-70
2021/03/12 05:14:22;;;;;;;18.05;9.63;;;;;;;-3.22;58.58;99443.14;1792762;78;23106;-69
2021/03/12 05:16:50;;;;;;;15.72;9.40;;;;;;;-3.23;58.81;99442.30;1751241;80;21207;-69
2021/03/12 05:19:20;;;;;;;17.57;9.43;;;;;;;-3.24;58.82;99434.58;1749080;80;21274;-69
2021/03/12 05:21:49;;;;;;;17.30;8.48;;;;;;;-3.23;58.75;99429.36;1748652;80;21227;-69
2021/03/12 05:24:18;;;;;;;16.87;10.38;;;;;;;-3.20;58.61;99447.85;1745904;82;21158;-69
2021/03/12 05:26:46;;;;;;;16.40;9.20;;;;;;;-3.19;58.73;99449.11;1768199;80;21150;-69
2021/03/12 05:29:15;;;;;;;18.17;8.70;;;;;;;-3.22;58.87;99422.45;1766880;81;21329;-69
2021/03/12 05:31:43;;;;;;;17.23;9.03;;;;;;;-3.19;58.42;99399.13;1738270;80;21741;-70
2021/03/12 05:34:12;;;;;;;35.65;9.80;;;;;;;-3.18;58.67;99403.42;1766573;80;21586;-70
2021/03/12 05:36:41;;;;;;;16.15;9.73;;;;;;;-3.19;58.62;99410.31;1754323;81;21618;-70
2021/03/12 05:39:09;;;;;;;20.70;10.82;;;;;;;-3.21;58.45;99418.98;1759311;80;21719;-70
2021/03/12 05:41:37;;;;;;;19.85;10.25;;;;;;;-3.16;58.61;99427.08;1765576;80;21159;-70
2021/03/12 05:44:06;;;;;;;25.20;11.50;;;;;;;-3.17;58.69;99400.80;1748377;80;21159;-70
2021/03/12 05:46:35;;;;;;;21.48;9.55;;;;;;;-3.16;58.88;99416.73;1760311;80;21524;-71
2021/03/12 05:49:05;;;;;;;27.60;8.75;;;;;;;-3.14;58.72;99395.55;1766074;81;21291;-70
2021/03/12 05:51:36;;;;;;;19.05;9.50;;;;;;;-3.18;58.68;99399.09;1697551;83;21659;-72
2021/03/12 05:54:04;;;;;;;16.52;10.08;;;;;;;-3.14;58.58;99424.45;1718244;82;21143;-71
2021/03/12 05:56:33;;;;;;;20.80;9.48;;;;;;;-3.07;58.73;99428.64;1716841;83;21181;-71
2021/03/12 05:59:04;;;;;;;17.27;9.55;;;;;;;-3.05;58.39;99400.15;1701784;82;21189;-71
2021/03/12 06:01:35;;;;;;;15.00;8.58;;;;;;;-3.00;58.16;99403.48;1694841;83;21191;-72
2021/03/12 06:04:02;;;;;;;16.25;8.75;;;;;;;-2.99;58.19;99407.33;1679955;83;21631;-72
2021/03/12 06:06:30;;;;;;;19.60;9.50;;;;;;;-2.99;57.90;99393.55;1699888;83;21190;-72
2021/03/12 06:08:59;;;;;;;21.07;10.90;;;;;;;-2.91;58.14;99402.00;1704129;83;21182;-72
2021/03/12 06:11:26;;;;;;;18.52;9.90;;;;;;;-2.90;57.72;99394.66;1705382;83;21175;-72
2021/03/12 06:13:55;;;;;;;15.72;9.08;;;;;;;-2.87;57.47;99393.28;1725125;83;21140;-72
2021/03/12 06:16:49;;;;;;;24.45;8.85;;;;;;;-2.78;57.81;99391.40;1919024;74;22859;-71
2021/03/12 06:19:20;;;;;;;17.05;9.58;;;;;;;-2.83;57.84;99383.27;1815952;79;21758;-72
2021/03/12 06:21:52;;;;;;;18.82;9.98;;;;;;;-2.76;57.33;99359.84;1837269;77;21147;-72
2021/03/12 06:24:35;;;;;;;17.92;8.15;;;;;;;-2.71;57.36;99352.83;1819073;79;22884;-71
2021/03/12 06:27:06;;;;;;;17.77;9.08;;;;;;;-2.71;57.54;99352.83;1788224;80;21264;-71
2021/03/12 06:29:38;;;;;;;20.62;9.35;;;;;;;-2.67;56.92;99344.13;1792663;80;21583;-71
2021/03/12 06:32:08;;;;;;;18.15;9.58;;;;;;;-2.65;56.78;99343.63;1772169;80;21302;-71
2021/03/12 06:35:00;;;;;;;17.12;8.95;;;;;;;-2.66;56.57;99341.50;1719087;83;21180;-73
2021/03/12 06:37:38;;;;;;;;;;;;;;;-2.62;56.74;99337.11;1688831;85;21690;-71
2021/03/12 06:40:25;;;;;;;18.15;9.95;;;;;;;-2.66;56.48;99347.09;1715642;83;20582;-72
2021/03/12 06:43:12;;;;;;;20.15;10.18;;;;;;;-2.66;56.57;99349.69;1720044;83;21115;-71
2021/03/12 06:45:56;;;;;;;18.85;9.70;;;;;;;-2.67;56.52;99344.13;1712291;82;21099;-71
2021/03/12 06:48:34;;;;;;;17.60;8.75;;;;;;;-2.66;56.58;99331.56;1721511;83;21147;-72
2021/03/12 06:51:20;;;;;;;;;;;;;;;-2.62;56.30;99338.83;1730586;83;21188;-72
2021/03/12 06:53:51;;;;;;;17.65;9.78;;;;;;;-2.54;56.18;99350.71;1730827;83;20282;-71
2021/03/12 06:56:29;;;;;;;22.42;9.60;;;;;;;-2.55;55.81;99347.70;1711867;83;21710;-72
2021/03/12 06:59:04;;;;;;;16.75;7.97;;;;;;;-2.54;55.82;99351.17;1691713;84;21749;-71
2021/03/12 07:01:33;;;;;;;17.90;9.85;;;;;;;-2.54;55.91;99338.22;1686635;84;21207;-71
2021/03/12 07:04:12;;;;;;;18.42;8.93;;;;;;;-2.49;55.65;99319.09;1684138;84;21308;-72
2021/03/12 07:06:52;;;;;;;21.42;9.78;;;;;;;-2.45;55.68;99333.27;1700188;84;21328;-72
2021/03/12 07:09:25;;;;;;;18.07;8.50;;;;;;;-2.36;55.42;99337.77;1686005;84;21161;-72
2021/03/12 07:12:04;;;;;;;20.75;9.23;;;;;;;-2.39;55.46;99334.39;1796908;79;22987;-71
2021/03/12 07:14:41;;;;;;;13.72;7.60;;;;;;;-2.40;55.46;99356.03;1741280;80;21981;-71
2021/03/12 07:17:25;;;;;;;22.37;9.68;;;;;;;-2.36;55.37;99326.57;1938540;73;22853;-71
2021/03/12 07:19:54;;;;;;;15.48;8.30;;;;;;;-2.37;55.57;99314.50;1826075;78;21284;-70
2021/03/12 07:22:22;;;;;;;15.38;8.50;;;;;;;-2.22;55.27;99310.23;1825940;77;21628;-71
2021/03/12 07:24:51;;;;;;;20.88;9.83;;;;;;;-2.09;54.65;99290.50;1816554;79;21159;-71
2021/03/12 07:27:19;;;;;;;17.52;8.90;;;;;;;-2.16;54.76;99293.25;1803484;78;21615;-71
2021/03/12 07:29:51;;;;;;;14.63;8.90;;;;;;;-2.20;54.97;99304.58;1833066;78;21620;-71
2021/03/12 07:32:21;;;;;;;25.72;9.98;;;;;;;-2.22;54.99;99299.87;1834183;78;21183;-71
2021/03/12 07:34:49;;;;;;;18.25;8.78;;;;;;;-2.22;54.93;99302.47;1802814;78;21305;-71
2021/03/12 07:37:20;;;;;;;21.52;8.98;;;;;;;-2.19;55.39;99308.84;1833775;78;21316;-71
2021/03/12 07:39:49;;;;;;;19.73;7.75;;;;;;;-2.17;55.23;99316.61;1835677;78;21191;-71
2021/03/12 07:42:19;;;;;;;17.67;9.60;;;;;;;-2.15;55.11;99322.58;1838881;77;21162;-71
2021/03/12 07:45:06;;;;;;;14.78;8.18;;;;;;;-2.15;55.35;99316.98;1846948;77;21154;-71
2021/03/12 07:47:50;;;;;;;21.12;8.60;;;;;;;-2.11;55.35;99289.68;1913923;73;22912;-70
2021/03/12 07:50:32;;;;;;;25.20;9.80;;;;;;;-2.16;55.41;99289.82;1863453;77;21576;-70
2021/03/12 07:53:02;;;;;;;17.73;8.20;;;;;;;-2.20;55.35;99270.91;1888771;75;21121;-71
2021/03/12 07:55:45;;;;;;;17.95;8.73;;;;;;;-2.16;55.33;99277.70;1879723;75;21193;-71
2021/03/12 07:58:57;;;;;;;16.82;8.48;;;;;;;-2.12;55.63;99256.88;1778684;79;22960;-71
2021/03/12 08:01:52;;;;;;;26.95;11.43;;;;;;;-2.17;55.68;99265.62;1723132;83;21178;-71
2021/03/12 08:04:34;;;;;;;25.27;10.40;;;;;;;-2.13;55.63;99278.06;1732373;82;21123;-71
2021/03/12 08:07:24;;;;;;;19.07;8.73;;;;;;;-2.08;55.75;99276.20;1746962;82;21308;-70
2021/03/12 08:09:56;;;;;;;25.88;9.23;;;;;;;-2.07;55.69;99295.18;1752966;82;21148;-70
2021/03/12 08:12:39;;;;;;;15.35;8.18;;;;;;;-2.04;55.82;99283.45;1714249;82;21203;-70
2021/03/12 08:15:19;;;;;;;15.08;7.90;;;;;;;-2.00;55.94;99305.80;1713366;83;21207;-71
2021/03/12 08:18:03;;;;;;;11.88;7.05;;;;;;;-2.00;55.63;99283.78;1704423;84;21328;-71
2021/03/12 08:20:40;;;;;;;;;;;;;;;-2.00;55.78;99283.78;1706903;84;21158;-71
2021/03/12 08:23:35;;;;;;;15.98;7.22;;;;;;;-1.94;55.89;99284.05;1705391;83;20200;-71
2021/03/12 08:26:08;;;;;;;14.45;7.50;;;;;;;-1.99;55.97;99263.45;1780154;79;24022;-71
2021/03/12 08:28:40;;;;;;;24.90;8.23;;;;;;;-2.01;56.08;99251.84;1728549;82;21190;-71
2021/03/12 08:31:09;;;;;;;19.17;8.83;;;;;;;-2.01;56.09;99271.70;1752203;82;21703;-71
2021/03/12 08:33:50;;;;;;;18.60;8.75;;;;;;;-1.94;56.08;99264.61;1751732;82;21163;-71
2021/03/12 08:36:34;;;;;;;23.02;10.90;;;;;;;-1.87;56.19;99265.70;1748510;82;21214;-71
2021/03/12 08:39:27;;;;;;;16.17;8.45;;;;;;;-1.84;56.24;99260.45;1738000;82;21131;-71
2021/03/12 08:42:16;;;;;;;21.75;10.08;;;;;;;-1.83;56.08;99259.98;1723301;83;21324;-71
2021/03/12 08:44:45;;;;;;;34.45;14.70;;;;;;;-1.76;56.09;99264.58;1732135;82;21160;-71
2021/03/12 08:47:18;;;;;;;23.22;8.58;;;;;;;-1.71;56.22;99253.63;1687327;85;21307;-71
2021/03/12 08:49:48;;;;;;;28.42;10.23;;;;;;;-1.72;55.77;99234.61;1678571;84;21304;-71
2021/03/12 08:52:21;;;;;;;30.25;10.18;;;;;;;-1.72;55.76;99236.38;1728310;82;21175;-72
2021/03/12 08:54:52;;;;;;;17.42;7.83;;;;;;;-1.73;56.45;99236.80;1745671;82;21116;-72
2021/03/12 08:57:21;;;;;;;19.48;9.58;;;;;;;-1.72;56.08;99245.45;1678674;85;21183;-72
2021/03/12 09:01:26;;;;;;;17.25;7.47;;;;;;;-1.65;56.58;99214.11;1803243;79;22869;-71
2021/03/12 09:04:04;;;;;;;24.87;11.38;;;;;;;-1.66;56.16;99224.53;1762077;80;21201;-71
2021/03/12 09:06:38;;;;;;;18.05;9.38;;;;;;;-1.64;56.34;99220.13;1790901;80;21320;-71
2021/03/12 09:09:25;;;;;;;19.95;8.45;;;;;;;-1.67;56.39;99228.02;1784850;80;21174;-71
2021/03/12 09:11:58;;;;;;;33.38;10.20;;;;;;;-1.68;56.56;99221.96;1772788;80;21661;-71
2021/03/12 09:14:45;;;;;;;17.90;8.78;;;;;;;-1.66;56.79;99224.08;1764945;80;21182;-71
2021/03/12 09:17:14;;;;;;;16.10;7.50;;;;;;;-1.59;56.58;99204.00;1761024;81;22307;-72
2021/03/12 09:19:43;;;;;;;11.93;6.58;;;;;;;-1.60;56.42;99194.51;1758750;81;21306;-71
2021/03/12 09:22:12;;;;;;;19.75;7.65;;;;;;;-1.59;56.62;99181.12;1730408;83;21316;-72
2021/03/12 09:24:54;;;;;;;23.90;12.20;;;;;;;-1.60;56.69;99172.47;1757938;81;21330;-71
2021/03/12 09:27:41;;;;;;;39.48;13.55;;;;;;;-1.56;56.84;99187.06;1761127;81;21185;-70
2021/03/12 09:30:28;;;;;;;25.37;10.38;;;;;;;-1.51;57.11;99200.75;1760679;81;21106;-72
2021/03/12 09:32:57;;;;;;;18.25;10.15;;;;;;;-1.50;57.05;99202.45;1726342;83;21333;-71
2021/03/12 09:35:26;;;;;;;13.32;7.65;;;;;;;-1.49;56.81;99201.53;1697225;84;21171;-71
2021/03/12 09:37:57;;;;;;;16.75;8.08;;;;;;;-1.52;56.90;99193.85;1715939;83;21216;-71
2021/03/12 09:40:35;;;;;;;14.35;7.87;;;;;;;-1.53;57.35;99198.63;1715012;83;21303;-71
2021/03/12 09:43:04;;;;;;;15.23;7.75;;;;;;;-1.52;57.22;99187.37;1697759;84;21219;-71
2021/03/12 09:45:49;;;;;;;13.85;7.25;;;;;;;-1.46;56.93;99172.52;1780189;79;23433;-71
2021/03/12 09:48:18;;;;;;;16.25;8.23;;;;;;;-1.54;57.21;99195.63;1752385;82;21699;-70
2021/03/12 09:50:48;;;;;;;22.85;9.78;;;;;;;-1.53;57.50;99171.41;1753156;81;21586;-71
2021/03/12 09:53:15;;;;;;;15.93;8.28;;;;;;;-1.53;57.54;99167.97;1729190;82;21186;-71
2021/03/12 09:55:45;;;;;;;19.17;7.97;;;;;;;-1.51;57.58;99147.58;1672072;85;21321;-72
2021/03/12 09:58:14;;;;;;;17.82;7.37;;;;;;;-1.53;57.86;99186.96;1656049;86;21335;-71
2021/03/12 10:00:43;;;;;;;13.08;7.62;;;;;;;-1.53;57.81;99171.86;1692189;85;21740;-71
2021/03/12 10:03:11;;;;;;;17.27;9.28;;;;;;;-1.53;57.84;99176.59;1696157;83;21186;-71
2021/03/12 10:06:10;;;;;;;12.68;7.65;;;;;;;-1.47;58.47;99160.44;1928442;74;23327;-71
2021/03/12 10:09:04;;;;;;;14.80;7.65;;;;;;;-1.50;59.08;99162.68;1893277;75;21281;-71
2021/03/12 10:11:49;;;;;;;14.28;6.70;;;;;;;-1.49;59.39;99162.63;1897797;75;21269;-70
2021/03/12 10:14:36;;;;;;;16.93;8.25;;;;;;;-1.54;60.78;99154.14;1886184;75;21188;-70
2021/03/12 10:17:12;;;;;;;17.17;8.90;;;;;;;-1.62;61.73;99174.28;1862611;77;21290;-71
2021/03/12 10:19:55;;;;;;;;;;;;;;;-1.62;63.01;99174.28;1853054;77;21321;-72
2021/03/12 10:22:43;;;;;;;15.38;7.90;;;;;;;-1.65;64.15;99160.95;1880446;76;20503;-70
2021/03/12 10:25:21;;;;;;;14.75;7.53;;;;;;;-1.70;65.04;99165.86;1886920;76;21167;-70
2021/03/12 10:27:59;;;;;;;22.05;9.08;;;;;;;-1.73;65.62;99163.37;1890085;76;21095;-70
2021/03/12 10:30:38;;;;;;;19.15;8.80;;;;;;;-1.78;66.74;99149.70;1777625;79;22969;-70
2021/03/12 10:33:23;;;;;;;17.73;9.13;;;;;;;-1.85;67.64;99155.05;1737448;82;21618;-70
2021/03/12 10:35:55;;;;;;;12.55;7.53;;;;;;;-1.87;68.27;99146.46;1750422;82;21171;-70
2021/03/12 10:38:25;;;;;;;17.02;8.15;;;;;;;-1.88;68.81;99156.88;1753094;82;21592;-70
2021/03/12 10:41:02;;;;;;;19.87;11.45;;;;;;;-1.91;69.10;99168.19;1742696;82;21135;-70
2021/03/12 10:43:33;;;;;;;21.30;11.45;;;;;;;-1.90;69.80;99152.21;1739554;82;21581;-71
2021/03/12 10:46:06;;;;;;;14.60;7.75;;;;;;;-1.88;70.28;99156.88;1728434;82;21179;-70
2021/03/12 10:48:47;;;;;;;17.32;8.00;;;;;;;-1.92;70.62;99136.67;1749354;82;21757;-68
2021/03/12 10:51:17;;;;;;;14.68;8.25;;;;;;;-1.93;70.90;99137.59;1731380;82;21162;-67
2021/03/12 10:53:49;;;;;;;12.90;8.13;;;;;;;-1.91;71.39;99142.73;1722920;83;21199;-68
2021/03/12 10:56:16;;;;;;;17.05;8.90;;;;;;;-1.97;72.18;99137.26;1661775;85;21209;-67
2021/03/12 10:58:44;;;;;;;17.82;8.48;;;;;;;-1.93;72.36;99142.78;1655556;85;21454;-67
2021/03/12 11:01:25;;;;;;;16.42;8.58;;;;;;;-1.95;72.58;99154.92;1678705;85;21601;-68
2021/03/12 11:03:54;;;;;;;17.75;9.20;;;;;;;-1.93;72.64;99144.08;1678735;85;21198;-68
2021/03/12 11:06:31;;;;;;;21.50;10.28;;;;;;;-1.90;72.96;99143.14;1678072;85;21175;-69
2021/03/12 11:08:58;;;;;;;17.50;8.98;;;;;;;-1.96;73.31;99131.19;1678482;85;21813;-68
2021/03/12 11:11:26;;;;;;;16.05;8.13;;;;;;;-1.91;73.05;99150.05;1678520;85;21292;-68
2021/03/12 11:13:55;;;;;;;16.37;8.88;;;;;;;-1.98;73.89;99140.77;1678523;85;21304;-70
2021/03/12 11:16:22;;;;;;;15.30;9.05;;;;;;;-2.04;74.12;99120.21;1678439;84;21345;-69
2021/03/12 11:18:51;;;;;;;16.27;9.33;;;;;;;-2.05;74.46;99132.76;1678366;85;21165;-68
2021/03/12 11:21:18;;;;;;;23.90;11.65;;;;;;;-2.00;74.96;99133.47;1678447;84;21603;-68
2021/03/12 11:23:46;;;;;;;17.48;9.58;;;;;;;-1.98;75.18;99131.23;1678490;85;21327;-69
2021/03/12 11:26:13;;;;;;;41.23;14.18;;;;;;;-1.94;74.84;99135.89;1678389;84;21155;-69
2021/03/12 11:28:42;;;;;;;19.82;10.45;;;;;;;-1.95;74.92;99124.28;1676614;85;21191;-69
2021/03/12 11:31:13;;;;;;;21.07;11.33;;;;;;;-1.98;75.18;99136.88;1637121;88;21620;-69
2021/03/12 11:33:41;;;;;;;19.80;11.50;;;;;;;-1.97;75.43;99132.08;1636994;88;21738;-68
2021/03/12 11:36:10;;;;;;;20.05;11.08;;;;;;;-1.98;75.10;99135.13;1637161;87;21520;-69
2021/03/12 11:38:41;;;;;;;27.87;12.80;;;;;;;-1.93;75.37;99125.06;1644467;86;21308;-69
2021/03/12 11:41:10;;;;;;;14.63;8.75;;;;;;;-1.93;75.14;99100.02;1663931;86;21178;-69
2021/03/12 11:43:38;;;;;;;16.20;10.00;;;;;;;-1.93;75.38;99112.11;1663501;86;21214;-69
2021/03/12 11:46:05;;;;;;;15.50;9.03;;;;;;;-1.90;75.78;99090.84;1663472;86;21237;-69
2021/03/12 11:48:33;;;;;;;16.70;10.00;;;;;;;-1.94;75.75;99093.13;1663458;86;21342;-68
2021/03/12 11:51:00;;;;;;;19.35;10.80;;;;;;;-1.86;75.57;99080.78;1663589;86;21172;-68